Terminal Aerodrome Forecast
Issued by NWS

Home | Current Version | Previous Version | Text Only | Print | Product List | Glossary On
Versions: 1 2 3 4 5 6 7 8 9 10 11 12 13 14 15 16 17 18 19 20 21 22 23 24 25 26
000
FTUS43 KILX 271514 AAB
TAFBMI
TAF AMD
KBMI 271514Z 2715/2812 19009KT P6SM SCT010 BKN120
     FM272200 20008KT P6SM VCTS BKN100CB
     FM280200 19005KT P6SM BKN150=

USA.gov is the U.S. government's official web portal to all federal, state and local government web resources and services.